Time;durP1;ratioP1;P1;durP2;ratioP2;P2;SDS_P1;SDS_P2;PMS_P1;PMS_P2;Temp;Humidity;BMP_temperature;BMP_pressure;BME280_temperature;BME280_humidity;BME280_pressure;Samples;Min_cycle;Max_cycle;Signal;HPM_P1;HPM_P2
2022/09/11 00:00:39;;;;;;;;;;;13.50;99.90;;;;;;5076824;28;19925;-72
2022/09/11 00:03:11;;;;;;;;;;;13.50;99.90;;;;;;5059506;28;20387;-71
2022/09/11 00:05:42;;;;;;;;;;;13.50;99.90;;;;;;5066316;28;19940;-72
2022/09/11 00:08:10;;;;;;;;;;;13.50;99.90;;;;;;5079832;28;19990;-72
2022/09/11 00:10:43;;;;;;;;;;;13.50;99.90;;;;;;5047895;28;19997;-73
2022/09/11 00:13:20;;;;;;;;;;;13.50;99.90;;;;;;5063407;28;19932;-73
2022/09/11 00:15:51;;;;;;;;;;;13.50;99.90;;;;;;5083675;28;19983;-72
2022/09/11 00:18:23;;;;;;;;;;;13.50;99.90;;;;;;5086066;28;19982;-73
2022/09/11 00:20:55;;;;;;;;;;;13.50;99.90;;;;;;5049305;28;20410;-72
2022/09/11 00:23:27;;;;;;;;;;;13.50;99.90;;;;;;5084807;28;19928;-72
2022/09/11 00:26:02;;;;;;;;;;;13.50;99.90;;;;;;5081325;28;19929;-73
2022/09/11 00:28:35;;;;;;;;;;;13.50;99.90;;;;;;5039139;28;19924;-73
2022/09/11 00:31:08;;;;;;;;;;;13.50;99.90;;;;;;5073464;28;19934;-73
2022/09/11 00:33:40;;;;;;;;;;;13.50;99.90;;;;;;5069925;28;20011;-72
2022/09/11 00:36:14;;;;;;;;;;;13.50;99.90;;;;;;5064479;28;19936;-73
2022/09/11 00:38:47;;;;;;;;;;;13.50;99.90;;;;;;5062699;28;19928;-72
2022/09/11 00:41:20;;;;;;;;;;;13.50;99.90;;;;;;5059696;28;19928;-72
2022/09/11 00:43:58;;;;;;;;;;;13.50;99.90;;;;;;5067746;28;19932;-73
2022/09/11 00:46:41;;;;;;;;;;;13.50;99.90;;;;;;5061094;28;20015;-72
2022/09/11 00:49:15;;;;;;;;;;;13.50;99.90;;;;;;5074962;28;20349;-72
2022/09/11 00:51:49;;;;;;;;;;;13.50;99.90;;;;;;5063323;28;19924;-72
2022/09/11 00:54:24;;;;;;;;;;;13.50;99.90;;;;;;5054557;28;19932;-73
2022/09/11 00:56:58;;;;;;;;;;;13.40;99.90;;;;;;5039112;28;19930;-72
2022/09/11 00:59:31;;;;;;;;;;;13.50;99.90;;;;;;5042324;28;20384;-73
2022/09/11 01:02:03;;;;;;;;;;;13.40;99.90;;;;;;5042691;28;19932;-73
2022/09/11 01:04:36;;;;;;;;;;;13.50;99.90;;;;;;5062471;28;20298;-73
2022/09/11 01:07:09;;;;;;;;;;;13.40;99.90;;;;;;5040797;28;19931;-72
2022/09/11 01:09:41;;;;;;;;;;;13.40;99.90;;;;;;5059829;28;19959;-72
2022/09/11 01:12:13;;;;;;;;;;;13.40;99.90;;;;;;5072044;28;19932;-72
2022/09/11 01:14:46;;;;;;;;;;;13.40;99.90;;;;;;5044007;28;20371;-72
2022/09/11 01:17:24;;;;;;;;;;;13.40;99.90;;;;;;5057947;28;19924;-72
2022/09/11 01:20:15;;;;;;;;;;;13.50;99.90;;;;;;5066750;28;20295;-72
2022/09/11 01:22:50;;;;;;;;;;;13.50;99.90;;;;;;5057185;28;20428;-72
2022/09/11 01:25:45;;;;;;;;;;;13.50;99.90;;;;;;5042960;28;19929;-72
2022/09/11 01:28:17;;;;;;;;;;;13.50;99.90;;;;;;5053302;28;20620;-77
2022/09/11 01:30:53;;;;;;;;;;;13.50;99.90;;;;;;5057042;28;20023;-72
2022/09/11 01:33:32;;;;;;;;;;;13.50;99.90;;;;;;5064419;28;19924;-72
2022/09/11 01:36:05;;;;;;;;;;;13.50;99.90;;;;;;5055090;28;19924;-72
2022/09/11 01:38:46;;;;;;;;;;;13.50;99.90;;;;;;5062347;28;19924;-72
2022/09/11 01:41:22;;;;;;;;;;;13.50;99.90;;;;;;5044919;28;19924;-72
2022/09/11 01:44:01;;;;;;;;;;;13.50;99.90;;;;;;5056908;28;19978;-72
2022/09/11 01:46:39;;;;;;;;;;;13.40;99.90;;;;;;5064443;28;19956;-72
2022/09/11 01:49:26;;;;;;;;;;;13.50;99.90;;;;;;5055674;28;20369;-73
2022/09/11 01:52:03;;;;;;;;;;;13.50;99.90;;;;;;5056166;28;19931;-72
2022/09/11 01:54:42;;;;;;;;;;;13.50;99.90;;;;;;5037571;28;19929;-73
2022/09/11 01:57:19;;;;;;;;;;;13.40;99.90;;;;;;5054246;28;19932;-72
2022/09/11 01:59:54;;;;;;;;;;;13.50;99.90;;;;;;5057602;28;19929;-72
2022/09/11 02:02:36;;;;;;;;;;;13.50;99.90;;;;;;5058606;28;19934;-72
2022/09/11 02:05:21;;;;;;;;;;;13.40;99.90;;;;;;5069806;28;19935;-72
2022/09/11 02:08:00;;;;;;;;;;;13.40;99.90;;;;;;5067761;28;19936;-72
2022/09/11 02:10:34;;;;;;;;;;;13.50;99.90;;;;;;5067406;28;20027;-72
2022/09/11 02:13:11;;;;;;;;;;;13.50;99.90;;;;;;5061492;28;20355;-72
2022/09/11 02:15:45;;;;;;;;;;;13.50;99.90;;;;;;5035641;28;19939;-72
2022/09/11 02:18:37;;;;;;;;;;;13.50;99.90;;;;;;5075620;28;20045;-73
2022/09/11 02:21:09;;;;;;;;;;;13.50;99.90;;;;;;5027670;28;19928;-73
2022/09/11 02:23:41;;;;;;;;;;;13.50;99.90;;;;;;5062334;28;19931;-72
2022/09/11 02:26:15;;;;;;;;;;;13.50;99.90;;;;;;5070410;28;19931;-72
2022/09/11 02:28:46;;;;;;;;;;;13.50;99.90;;;;;;5058359;28;19951;-72
2022/09/11 02:31:18;;;;;;;;;;;13.50;99.90;;;;;;5067833;28;20049;-72
2022/09/11 02:33:50;;;;;;;;;;;13.50;99.90;;;;;;5066754;28;19990;-72
2022/09/11 02:36:35;;;;;;;;;;;13.60;99.90;;;;;;5079372;28;20394;-72
2022/09/11 02:39:07;;;;;;;;;;;13.60;99.90;;;;;;5054511;28;19927;-72
2022/09/11 02:41:54;;;;;;;;;;;13.60;99.90;;;;;;5060731;28;19928;-71
2022/09/11 02:44:41;;;;;;;;;;;13.60;99.90;;;;;;5062868;28;19924;-72
2022/09/11 02:47:39;;;;;;;;;;;13.50;99.90;;;;;;5067054;28;19928;-72
2022/09/11 02:50:32;;;;;;;;;;;13.50;99.90;;;;;;5067858;28;19924;-72
2022/09/11 02:53:04;;;;;;;;;;;13.50;99.90;;;;;;5036935;28;20283;-72
2022/09/11 02:55:45;;;;;;;;;;;13.50;99.90;;;;;;5066220;28;19936;-72
2022/09/11 02:58:20;;;;;;;;;;;13.50;99.90;;;;;;5049326;28;19924;-72
2022/09/11 03:00:47;;;;;;;;;;;13.50;99.90;;;;;;5061549;28;19928;-72
2022/09/11 03:03:20;;;;;;;;;;;13.50;99.90;;;;;;5052734;28;19929;-72
2022/09/11 03:05:52;;;;;;;;;;;13.50;99.90;;;;;;5063284;28;19964;-72
2022/09/11 03:08:23;;;;;;;;;;;13.50;99.90;;;;;;5055893;28;20155;-72
2022/09/11 03:10:55;;;;;;;;;;;13.60;99.90;;;;;;5056375;28;20014;-72
2022/09/11 03:13:30;;;;;;;;;;;13.60;99.90;;;;;;5061499;28;19928;-72
2022/09/11 03:16:03;;;;;;;;;;;13.60;99.90;;;;;;5065244;28;19982;-72
2022/09/11 03:18:35;;;;;;;;;;;13.60;99.90;;;;;;5058946;28;19986;-72
2022/09/11 03:21:09;;;;;;;;;;;13.60;99.90;;;;;;5053396;28;19935;-72
2022/09/11 03:23:42;;;;;;;;;;;13.60;99.90;;;;;;5055151;28;19931;-73
2022/09/11 03:26:16;;;;;;;;;;;13.60;99.90;;;;;;5059335;28;19928;-72
2022/09/11 03:28:46;;;;;;;;;;;13.60;99.90;;;;;;5053629;28;19928;-72
2022/09/11 03:31:18;;;;;;;;;;;13.60;99.90;;;;;;5052620;28;19929;-72
2022/09/11 03:33:51;;;;;;;;;;;13.50;99.90;;;;;;5086296;28;20473;-73
2022/09/11 03:36:22;;;;;;;;;;;13.50;99.90;;;;;;5071184;28;19931;-73
2022/09/11 03:38:55;;;;;;;;;;;13.60;99.90;;;;;;5053810;28;19928;-73
2022/09/11 03:41:28;;;;;;;;;;;13.50;99.90;;;;;;5049273;28;19924;-73
2022/09/11 03:44:00;;;;;;;;;;;13.50;99.90;;;;;;5070022;28;19971;-73
2022/09/11 03:46:28;;;;;;;;;;;13.50;99.90;;;;;;5075282;28;19924;-72
2022/09/11 03:49:00;;;;;;;;;;;13.50;99.90;;;;;;5086984;28;19932;-73
2022/09/11 03:51:32;;;;;;;;;;;13.50;99.90;;;;;;5079315;28;20490;-73
2022/09/11 03:54:03;;;;;;;;;;;13.50;99.90;;;;;;5071557;28;19924;-72
2022/09/11 03:56:30;;;;;;;;;;;13.40;99.90;;;;;;5069129;28;19929;-73
2022/09/11 03:59:02;;;;;;;;;;;13.40;99.90;;;;;;5065626;28;20399;-73
2022/09/11 04:01:29;;;;;;;;;;;13.30;99.90;;;;;;5061851;28;20532;-72
2022/09/11 04:04:03;;;;;;;;;;;13.30;99.90;;;;;;5061121;28;19931;-73
2022/09/11 04:06:39;;;;;;;;;;;13.30;99.90;;;;;;5078632;28;19924;-73
2022/09/11 04:09:11;;;;;;;;;;;13.30;99.90;;;;;;5071760;28;20023;-72
2022/09/11 04:11:38;;;;;;;;;;;13.30;99.90;;;;;;5062294;28;19973;-73
2022/09/11 04:14:21;;;;;;;;;;;13.30;99.90;;;;;;5065814;28;19924;-72
2022/09/11 04:16:55;;;;;;;;;;;13.30;99.90;;;;;;5056599;28;20008;-73
2022/09/11 04:19:28;;;;;;;;;;;13.30;99.90;;;;;;5037046;28;19944;-73
2022/09/11 04:21:59;;;;;;;;;;;13.20;99.90;;;;;;5061016;28;19928;-73
2022/09/11 04:24:36;;;;;;;;;;;13.20;99.90;;;;;;5068856;28;19928;-73
2022/09/11 04:27:08;;;;;;;;;;;13.20;99.90;;;;;;5060051;28;19978;-72
2022/09/11 04:29:34;;;;;;;;;;;13.20;99.90;;;;;;5066511;28;19933;-73
2022/09/11 04:32:07;;;;;;;;;;;13.10;99.90;;;;;;5062543;28;19928;-72
2022/09/11 04:34:39;;;;;;;;;;;13.20;99.90;;;;;;5078305;28;19929;-73
2022/09/11 04:37:11;;;;;;;;;;;13.20;99.90;;;;;;5060930;28;20375;-72
2022/09/11 04:39:43;;;;;;;;;;;13.20;99.90;;;;;;5039050;28;19924;-72
2022/09/11 04:42:09;;;;;;;;;;;13.20;99.90;;;;;;5063806;28;19975;-72
2022/09/11 04:44:42;;;;;;;;;;;13.20;99.90;;;;;;5068954;28;19978;-72
2022/09/11 04:47:15;;;;;;;;;;;13.20;99.90;;;;;;5065956;28;19928;-72
2022/09/11 04:49:47;;;;;;;;;;;13.20;99.90;;;;;;5059835;28;19930;-73
2022/09/11 04:52:19;;;;;;;;;;;13.20;99.90;;;;;;5058785;28;19983;-72
2022/09/11 04:54:51;;;;;;;;;;;13.20;99.90;;;;;;5077361;28;19970;-72
2022/09/11 04:57:18;;;;;;;;;;;13.30;99.90;;;;;;5069437;28;19982;-72
2022/09/11 04:59:50;;;;;;;;;;;13.30;99.90;;;;;;5063034;28;20014;-72
2022/09/11 05:02:22;;;;;;;;;;;13.30;99.90;;;;;;5074515;28;19925;-72
2022/09/11 05:04:53;;;;;;;;;;;13.30;99.90;;;;;;5100176;28;19924;-72
2022/09/11 05:07:28;;;;;;;;;;;13.20;99.90;;;;;;5080175;28;19955;-72
2022/09/11 05:10:02;;;;;;;;;;;13.20;99.90;;;;;;5065926;28;20429;-72
2022/09/11 05:12:34;;;;;;;;;;;13.30;99.90;;;;;;5062802;28;19936;-72
2022/09/11 05:15:07;;;;;;;;;;;13.30;99.90;;;;;;5049126;28;19943;-72
2022/09/11 05:17:39;;;;;;;;;;;13.30;99.90;;;;;;5066002;28;19934;-72
2022/09/11 05:20:11;;;;;;;;;;;13.30;99.90;;;;;;5066939;28;19932;-72
2022/09/11 05:22:43;;;;;;;;;;;13.30;99.90;;;;;;5062274;28;19925;-73
2022/09/11 05:25:16;;;;;;;;;;;13.30;99.90;;;;;;5069260;28;19928;-72
2022/09/11 05:27:48;;;;;;;;;;;13.30;99.90;;;;;;5056641;28;19931;-72
2022/09/11 05:30:19;;;;;;;;;;;13.30;99.90;;;;;;5064126;28;19928;-73
2022/09/11 05:32:54;;;;;;;;;;;13.30;99.90;;;;;;5041536;28;20394;-73
2022/09/11 05:35:26;;;;;;;;;;;13.30;99.90;;;;;;5059364;28;19983;-72
2022/09/11 05:37:57;;;;;;;;;;;13.30;99.90;;;;;;5044387;28;19925;-72
2022/09/11 05:40:29;;;;;;;;;;;13.30;99.90;;;;;;5058234;28;19926;-72
2022/09/11 05:42:56;;;;;;;;;;;13.40;99.90;;;;;;5029399;28;20304;-72
2022/09/11 05:45:28;;;;;;;;;;;13.40;99.90;;;;;;5052241;28;19925;-72
2022/09/11 05:48:02;;;;;;;;;;;13.40;99.90;;;;;;5028973;28;21950;-73
2022/09/11 05:50:31;;;;;;;;;;;13.40;99.90;;;;;;5059491;28;19928;-72
2022/09/11 05:52:59;;;;;;;;;;;13.40;99.90;;;;;;5047756;28;19936;-72
2022/09/11 05:55:34;;;;;;;;;;;13.40;99.90;;;;;;5062118;28;19931;-72
2022/09/11 05:58:06;;;;;;;;;;;13.40;99.90;;;;;;5079646;28;20358;-72
2022/09/11 06:00:39;;;;;;;;;;;13.40;99.90;;;;;;5062634;28;19978;-72
2022/09/11 06:03:15;;;;;;;;;;;13.40;99.90;;;;;;5059051;28;19982;-72
2022/09/11 06:05:46;;;;;;;;;;;13.50;99.90;;;;;;5077840;28;19932;-73
2022/09/11 06:08:18;;;;;;;;;;;13.50;99.90;;;;;;5064228;28;19928;-73
2022/09/11 06:10:50;;;;;;;;;;;13.50;99.90;;;;;;5078549;28;19982;-73
2022/09/11 06:13:22;;;;;;;;;;;13.50;99.90;;;;;;5040073;28;19931;-73
2022/09/11 06:15:53;;;;;;;;;;;13.50;99.90;;;;;;5056890;28;20406;-72
2022/09/11 06:18:25;;;;;;;;;;;13.60;99.90;;;;;;5084289;28;19928;-73
2022/09/11 06:20:59;;;;;;;;;;;13.60;99.90;;;;;;5063824;28;19924;-72
2022/09/11 06:23:31;;;;;;;;;;;13.60;99.90;;;;;;5081942;28;20386;-72
2022/09/11 06:26:02;;;;;;;;;;;13.60;99.90;;;;;;5061260;28;19932;-72
2022/09/11 06:28:36;;;;;;;;;;;13.70;99.90;;;;;;5065620;28;19935;-72
2022/09/11 06:31:11;;;;;;;;;;;13.70;99.90;;;;;;5056946;28;20514;-72
2022/09/11 06:33:44;;;;;;;;;;;13.70;99.90;;;;;;5065698;28;19929;-71
2022/09/11 06:36:25;;;;;;;;;;;13.80;99.90;;;;;;5070066;28;20009;-73
2022/09/11 06:39:01;;;;;;;;;;;13.80;99.90;;;;;;5044619;28;20028;-73
2022/09/11 06:41:34;;;;;;;;;;;13.80;99.90;;;;;;5036112;28;19931;-72
2022/09/11 06:44:10;;;;;;;;;;;13.80;99.90;;;;;;5062009;28;19924;-72
2022/09/11 06:46:43;;;;;;;;;;;13.80;99.90;;;;;;5066894;28;20003;-72
2022/09/11 06:49:16;;;;;;;;;;;13.80;99.90;;;;;;5061133;28;19929;-72
2022/09/11 06:52:06;;;;;;;;;;;13.80;99.90;;;;;;5071928;28;19931;-72
2022/09/11 06:54:33;;;;;;;;;;;13.90;99.90;;;;;;5072235;28;19924;-72
2022/09/11 06:57:09;;;;;;;;;;;13.90;99.90;;;;;;5067328;28;20410;-72
2022/09/11 06:59:41;;;;;;;;;;;13.90;99.90;;;;;;5072397;28;19939;-72
2022/09/11 07:02:15;;;;;;;;;;;14.00;99.90;;;;;;5065011;28;19947;-72
2022/09/11 07:04:43;;;;;;;;;;;14.00;99.90;;;;;;5058785;28;19924;-72
2022/09/11 07:07:15;;;;;;;;;;;14.00;99.90;;;;;;5084836;28;21228;-72
2022/09/11 07:09:42;;;;;;;;;;;14.10;99.90;;;;;;5080836;28;19924;-72
2022/09/11 07:12:15;;;;;;;;;;;14.10;99.90;;;;;;5051698;28;19932;-72
2022/09/11 07:14:47;;;;;;;;;;;14.20;99.90;;;;;;5063288;28;19925;-72
2022/09/11 07:17:18;;;;;;;;;;;14.20;99.90;;;;;;5070636;28;19924;-72
2022/09/11 07:19:51;;;;;;;;;;;14.20;99.90;;;;;;5050691;28;20327;-72
2022/09/11 07:22:23;;;;;;;;;;;14.20;99.90;;;;;;5052612;28;19928;-72
2022/09/11 07:24:54;;;;;;;;;;;14.20;99.90;;;;;;5067699;28;19978;-72
2022/09/11 07:27:27;;;;;;;;;;;14.30;99.90;;;;;;5084319;28;19928;-72
2022/09/11 07:30:00;;;;;;;;;;;14.30;99.90;;;;;;5059341;28;20415;-72
2022/09/11 07:32:36;;;;;;;;;;;14.30;99.90;;;;;;5068896;28;20023;-72
2022/09/11 07:35:08;;;;;;;;;;;14.40;99.90;;;;;;5060265;28;19924;-72
2022/09/11 07:37:34;;;;;;;;;;;14.50;99.90;;;;;;5061465;28;19931;-72
2022/09/11 07:40:02;;;;;;;;;;;14.50;99.90;;;;;;5055193;28;19931;-75
2022/09/11 07:42:33;;;;;;;;;;;14.60;99.90;;;;;;5069247;28;19928;-72
2022/09/11 07:45:06;;;;;;;;;;;14.60;99.90;;;;;;5040880;28;19939;-72
2022/09/11 07:47:33;;;;;;;;;;;14.60;99.90;;;;;;5069553;28;19924;-72
2022/09/11 07:50:05;;;;;;;;;;;14.60;99.90;;;;;;5057937;28;19971;-72
2022/09/11 07:52:32;;;;;;;;;;;14.70;99.90;;;;;;5052523;28;20019;-72
2022/09/11 07:55:05;;;;;;;;;;;14.90;99.90;;;;;;5054132;28;19932;-72
2022/09/11 07:57:33;;;;;;;;;;;14.90;99.90;;;;;;5059424;28;20603;-72
2022/09/11 08:00:03;;;;;;;;;;;15.10;99.90;;;;;;5068685;28;20448;-72
2022/09/11 08:02:45;;;;;;;;;;;15.20;99.90;;;;;;5078003;28;20409;-72
2022/09/11 08:05:27;;;;;;;;;;;15.20;99.90;;;;;;5059528;28;19935;-72
2022/09/11 08:07:59;;;;;;;;;;;15.20;99.90;;;;;;5045663;28;19924;-72
2022/09/11 08:10:32;;;;;;;;;;;15.20;99.90;;;;;;5061134;28;19970;-72
2022/09/11 08:13:04;;;;;;;;;;;15.20;99.90;;;;;;5071628;28;19984;-72
2022/09/11 08:15:36;;;;;;;;;;;15.10;99.90;;;;;;5063350;28;19928;-72
2022/09/11 08:18:09;;;;;;;;;;;15.10;99.90;;;;;;5069365;28;19924;-72
2022/09/11 08:20:41;;;;;;;;;;;15.10;99.90;;;;;;5039192;28;20272;-72
2022/09/11 08:23:14;;;;;;;;;;;15.20;99.90;;;;;;5060435;28;20023;-72
2022/09/11 08:25:46;;;;;;;;;;;15.20;99.90;;;;;;5063311;28;20023;-72
2022/09/11 08:28:18;;;;;;;;;;;15.20;99.90;;;;;;5068423;28;20313;-72
2022/09/11 08:30:55;;;;;;;;;;;15.30;99.90;;;;;;5044700;28;19971;-72
2022/09/11 08:33:27;;;;;;;;;;;15.40;99.90;;;;;;5078306;28;19936;-72
2022/09/11 08:35:59;;;;;;;;;;;15.40;99.90;;;;;;5068254;28;19931;-72
2022/09/11 08:38:32;;;;;;;;;;;15.40;99.90;;;;;;5062426;28;20275;-72
2022/09/11 08:41:09;;;;;;;;;;;15.40;99.90;;;;;;5047423;28;19994;-71
2022/09/11 08:43:49;;;;;;;;;;;15.40;99.90;;;;;;5040426;28;19929;-72
2022/09/11 08:46:23;;;;;;;;;;;15.40;99.90;;;;;;5077041;28;19924;-72
2022/09/11 08:49:00;;;;;;;;;;;15.40;99.90;;;;;;5040361;28;19929;-72
2022/09/11 08:51:33;;;;;;;;;;;15.30;99.90;;;;;;5056868;28;19947;-72
2022/09/11 08:54:05;;;;;;;;;;;15.30;99.90;;;;;;5055949;28;19962;-72
2022/09/11 08:56:37;;;;;;;;;;;15.40;99.90;;;;;;5051500;28;19929;-72
2022/09/11 08:59:28;;;;;;;;;;;15.50;99.90;;;;;;5059429;28;19925;-72
2022/09/11 09:01:54;;;;;;;;;;;15.40;99.90;;;;;;5072445;28;19931;-72
2022/09/11 09:04:26;;;;;;;;;;;15.40;99.90;;;;;;5068483;28;19929;-72
2022/09/11 09:07:19;;;;;;;;;;;15.40;99.90;;;;;;5056548;28;19967;-72
2022/09/11 09:09:58;;;;;;;;;;;15.50;99.90;;;;;;5060013;28;19931;-72
2022/09/11 09:12:31;;;;;;;;;;;15.60;99.90;;;;;;5066581;28;20298;-72
2022/09/11 09:15:10;;;;;;;;;;;15.60;99.90;;;;;;5052855;28;19924;-72
2022/09/11 09:17:37;;;;;;;;;;;15.70;99.90;;;;;;5054382;28;19933;-72
2022/09/11 09:20:09;;;;;;;;;;;15.70;99.90;;;;;;5062955;28;19996;-72
2022/09/11 09:22:49;;;;;;;;;;;15.80;99.90;;;;;;5045092;28;19932;-73
2022/09/11 09:25:22;;;;;;;;;;;15.80;99.90;;;;;;5052222;28;20369;-72
2022/09/11 09:28:02;;;;;;;;;;;15.90;99.90;;;;;;5041937;28;19976;-72
2022/09/11 09:30:40;;;;;;;;;;;15.90;99.90;;;;;;5057215;28;19936;-72
2022/09/11 09:33:12;;;;;;;;;;;15.90;99.90;;;;;;5047955;28;19935;-72
2022/09/11 09:35:44;;;;;;;;;;;15.90;99.90;;;;;;5038645;28;19937;-72
2022/09/11 09:38:25;;;;;;;;;;;15.90;99.90;;;;;;5039641;28;19929;-72
2022/09/11 09:41:00;;;;;;;;;;;15.90;99.90;;;;;;5048381;28;19928;-72
2022/09/11 09:43:51;;;;;;;;;;;15.90;99.90;;;;;;5050899;28;20400;-72
2022/09/11 09:46:17;;;;;;;;;;;16.00;99.90;;;;;;5059938;28;19925;-72
2022/09/11 09:48:44;;;;;;;;;;;16.00;99.90;;;;;;5056562;28;19931;-72
2022/09/11 09:51:16;;;;;;;;;;;16.00;99.90;;;;;;5053596;28;19971;-72
2022/09/11 09:53:51;;;;;;;;;;;15.90;99.90;;;;;;5084925;28;19932;-72
2022/09/11 09:56:23;;;;;;;;;;;15.90;99.90;;;;;;5054705;28;19931;-72
2022/09/11 09:59:11;;;;;;;;;;;16.00;99.90;;;;;;5042619;28;19951;-72
2022/09/11 10:01:38;;;;;;;;;;;16.00;99.90;;;;;;5071990;28;19982;-72
2022/09/11 10:04:10;;;;;;;;;;;16.10;99.90;;;;;;5056015;28;19982;-72
2022/09/11 10:06:44;;;;;;;;;;;16.10;99.90;;;;;;5052423;28;19924;-72
2022/09/11 10:09:18;;;;;;;;;;;16.20;99.90;;;;;;5068347;28;19995;-72
2022/09/11 10:12:12;;;;;;;;;;;16.20;99.90;;;;;;5066291;28;19924;-72
2022/09/11 10:15:00;;;;;;;;;;;16.20;99.90;;;;;;5077925;28;20276;-72
2022/09/11 10:17:37;;;;;;;;;;;16.30;99.90;;;;;;5069236;28;19928;-72
2022/09/11 10:20:20;;;;;;;;;;;16.40;99.90;;;;;;5077459;28;20415;-73
2022/09/11 10:22:53;;;;;;;;;;;16.40;99.90;;;;;;5079908;28;19924;-72
2022/09/11 10:25:25;;;;;;;;;;;16.50;99.90;;;;;;5070863;28;19931;-72
2022/09/11 10:28:09;;;;;;;;;;;16.60;99.90;;;;;;5069049;28;19928;-72
2022/09/11 10:30:38;;;;;;;;;;;16.70;99.90;;;;;;5077918;28;19924;-72
2022/09/11 10:33:16;;;;;;;;;;;16.80;99.90;;;;;;5073074;28;19979;-72
2022/09/11 10:35:49;;;;;;;;;;;16.80;99.90;;;;;;5063780;28;19928;-72
2022/09/11 10:38:24;;;;;;;;;;;16.90;99.90;;;;;;5061231;28;19928;-72
2022/09/11 10:41:08;;;;;;;;;;;17.00;99.90;;;;;;5077551;28;19990;-72
2022/09/11 10:44:00;;;;;;;;;;;17.10;99.90;;;;;;5047427;28;19979;-72
2022/09/11 10:46:28;;;;;;;;;;;17.20;99.90;;;;;;5045505;28;19952;-72
2022/09/11 10:49:03;;;;;;;;;;;17.30;99.90;;;;;;5052581;28;19932;-72
2022/09/11 10:51:36;;;;;;;;;;;17.30;99.90;;;;;;5069378;28;19928;-72
2022/09/11 10:54:08;;;;;;;;;;;17.50;99.90;;;;;;5068257;28;19937;-72
2022/09/11 10:56:48;;;;;;;;;;;17.60;99.90;;;;;;5070529;28;19931;-72
2022/09/11 10:59:18;;;;;;;;;;;17.60;99.90;;;;;;5068881;28;19928;-72
2022/09/11 11:01:45;;;;;;;;;;;17.60;99.90;;;;;;5069286;28;19932;-72
2022/09/11 11:04:17;;;;;;;;;;;17.60;99.90;;;;;;5056748;28;19978;-72
2022/09/11 11:06:55;;;;;;;;;;;17.50;99.90;;;;;;5057712;28;19983;-72
2022/09/11 11:09:33;;;;;;;;;;;17.60;99.90;;;;;;5067529;28;19929;-71
2022/09/11 11:12:17;;;;;;;;;;;17.60;99.90;;;;;;5043434;28;19932;-72
2022/09/11 11:14:54;;;;;;;;;;;17.70;99.90;;;;;;5059060;28;20630;-72
2022/09/11 11:17:27;;;;;;;;;;;17.80;99.90;;;;;;5061782;28;19924;-72
2022/09/11 11:20:14;;;;;;;;;;;17.90;99.90;;;;;;5066890;28;20531;-72
2022/09/11 11:22:49;;;;;;;;;;;18.00;99.90;;;;;;5054694;28;19928;-73
2022/09/11 11:25:26;;;;;;;;;;;17.90;99.90;;;;;;5074736;28;20419;-72
2022/09/11 11:27:59;;;;;;;;;;;17.90;99.90;;;;;;5071341;28;20296;-73
2022/09/11 11:30:36;;;;;;;;;;;17.90;99.90;;;;;;5038222;28;19947;-72
2022/09/11 11:33:17;;;;;;;;;;;17.90;99.90;;;;;;5054240;28;19994;-72
2022/09/11 11:35:51;;;;;;;;;;;17.90;99.90;;;;;;5072576;28;19938;-72
2022/09/11 11:38:27;;;;;;;;;;;17.90;99.90;;;;;;5066805;28;19979;-72
2022/09/11 11:41:04;;;;;;;;;;;17.90;99.90;;;;;;5050067;28;19929;-72
2022/09/11 11:43:33;;;;;;;;;;;17.90;99.90;;;;;;5073494;28;19925;-72
2022/09/11 11:46:10;;;;;;;;;;;18.00;99.90;;;;;;5050434;28;20452;-72
2022/09/11 11:49:00;;;;;;;;;;;18.20;99.90;;;;;;5078571;28;20359;-72
2022/09/11 11:51:31;;;;;;;;;;;18.20;99.90;;;;;;5064359;28;19925;-72
2022/09/11 11:54:06;;;;;;;;;;;18.30;99.90;;;;;;5078664;28;19974;-72
2022/09/11 11:56:45;;;;;;;;;;;18.40;99.90;;;;;;5074572;28;19924;-72
2022/09/11 11:59:23;;;;;;;;;;;18.50;99.90;;;;;;5057579;28;19924;-73
2022/09/11 12:01:57;;;;;;;;;;;18.50;99.90;;;;;;5060269;28;19986;-72
2022/09/11 12:04:42;;;;;;;;;;;18.60;99.90;;;;;;5059468;28;19935;-72
2022/09/11 12:07:17;;;;;;;;;;;18.60;99.90;;;;;;5052718;28;19924;-72
2022/09/11 12:09:51;;;;;;;;;;;18.80;99.90;;;;;;5056994;28;19946;-72
2022/09/11 12:12:24;;;;;;;;;;;18.80;99.90;;;;;;5068975;28;19932;-72
2022/09/11 12:15:01;;;;;;;;;;;19.00;99.90;;;;;;5039607;28;19928;-72
2022/09/11 12:17:34;;;;;;;;;;;19.20;99.90;;;;;;5056451;28;19924;-72
2022/09/11 12:20:08;;;;;;;;;;;19.30;99.90;;;;;;5068458;28;19924;-72
2022/09/11 12:22:44;;;;;;;;;;;19.30;99.90;;;;;;5055146;28;19932;-72
2022/09/11 12:25:19;;;;;;;;;;;19.10;99.90;;;;;;5061460;28;19923;-72
2022/09/11 12:27:52;;;;;;;;;;;19.00;99.90;;;;;;5067573;28;19925;-72
2022/09/11 12:30:20;;;;;;;;;;;18.90;99.90;;;;;;5020904;28;19936;-71
2022/09/11 12:32:53;;;;;;;;;;;18.80;99.90;;;;;;5038232;28;20346;-74
2022/09/11 12:35:39;;;;;;;;;;;18.80;99.90;;;;;;5057678;28;19974;-72
2022/09/11 12:38:21;;;;;;;;;;;19.00;99.90;;;;;;5061919;28;19955;-72
2022/09/11 12:40:52;;;;;;;;;;;19.00;99.90;;;;;;5042673;28;19925;-72
2022/09/11 12:43:36;;;;;;;;;;;18.90;99.90;;;;;;5077005;28;19925;-72
2022/09/11 12:46:33;;;;;;;;;;;18.90;99.90;;;;;;5057763;28;19935;-72
2022/09/11 12:49:05;;;;;;;;;;;18.80;99.90;;;;;;5050584;28;19925;-72
2022/09/11 12:51:38;;;;;;;;;;;18.70;99.90;;;;;;5056301;28;19939;-72
2022/09/11 12:54:25;;;;;;;;;;;18.60;99.90;;;;;;5058281;28;19925;-72
2022/09/11 12:57:07;;;;;;;;;;;18.50;99.90;;;;;;5081918;28;20395;-72
2022/09/11 12:59:41;;;;;;;;;;;18.50;99.90;;;;;;5055580;28;20375;-72
2022/09/11 13:02:24;;;;;;;;;;;18.60;99.90;;;;;;5046014;28;19925;-72
2022/09/11 13:04:56;;;;;;;;;;;18.60;99.90;;;;;;5069044;28;19925;-72
2022/09/11 13:07:44;;;;;;;;;;;18.50;99.90;;;;;;5065937;28;19995;-72
2022/09/11 13:10:35;;;;;;;;;;;18.50;99.90;;;;;;5070034;28;19925;-72
2022/09/11 13:13:30;;;;;;;;;;;18.40;99.90;;;;;;5052908;28;19932;-72
2022/09/11 13:15:57;;;;;;;;;;;18.40;99.90;;;;;;5054309;28;19924;-72
2022/09/11 13:18:30;;;;;;;;;;;18.30;99.90;;;;;;5070182;28;19928;-71
2022/09/11 13:21:12;;;;;;;;;;;18.40;99.90;;;;;;5048159;28;19929;-72
2022/09/11 13:23:44;;;;;;;;;;;18.40;99.90;;;;;;5069528;28;20387;-72
2022/09/11 13:26:24;;;;;;;;;;;18.40;99.90;;;;;;5063585;28;19983;-72
2022/09/11 13:28:52;;;;;;;;;;;18.40;99.90;;;;;;5079213;28;19924;-72
2022/09/11 13:31:30;;;;;;;;;;;18.50;99.90;;;;;;5059897;28;20433;-72
2022/09/11 13:34:03;;;;;;;;;;;18.50;99.90;;;;;;5080047;28;19928;-71
2022/09/11 13:36:36;;;;;;;;;;;18.60;99.90;;;;;;5056288;28;19928;-72
2022/09/11 13:39:08;;;;;;;;;;;18.60;99.90;;;;;;5076907;28;19950;-72
2022/09/11 13:41:43;;;;;;;;;;;18.70;99.90;;;;;;5069006;28;19933;-72
2022/09/11 13:44:54;;;;;;;;;;;18.80;99.90;;;;;;5046796;28;20336;-72
2022/09/11 13:47:27;;;;;;;;;;;18.80;99.90;;;;;;4989400;28;19925;-72
2022/09/11 13:50:05;;;;;;;;;;;18.80;99.90;;;;;;4985634;28;19938;-74
2022/09/11 13:52:37;;;;;;;;;;;18.70;99.90;;;;;;5042555;28;19947;-73
2022/09/11 13:55:17;;;;;;;;;;;18.70;99.90;;;;;;5061868;28;19928;-73
2022/09/11 13:57:56;;;;;;;;;;;18.70;99.90;;;;;;5063937;28;19985;-72
2022/09/11 14:00:37;;;;;;;;;;;18.70;99.90;;;;;;5060648;28;19982;-72
2022/09/11 14:03:19;;;;;;;;;;;18.70;99.90;;;;;;5078501;28;19928;-72
2022/09/11 14:05:52;;;;;;;;;;;18.70;99.90;;;;;;5080349;28;19935;-73
2022/09/11 14:08:24;;;;;;;;;;;18.60;99.90;;;;;;5062933;28;19932;-72
2022/09/11 14:10:58;;;;;;;;;;;18.60;99.90;;;;;;5073149;28;19971;-72
2022/09/11 14:13:31;;;;;;;;;;;18.60;99.90;;;;;;5073173;28;19982;-73
2022/09/11 14:16:06;;;;;;;;;;;18.50;99.90;;;;;;5057155;28;19985;-73
2022/09/11 14:18:44;;;;;;;;;;;18.50;99.90;;;;;;5059470;28;19975;-72
2022/09/11 14:21:16;;;;;;;;;;;18.50;99.90;;;;;;5048931;28;19978;-71
2022/09/11 14:23:52;;;;;;;;;;;18.50;99.90;;;;;;5072575;28;19924;-73
2022/09/11 14:26:30;;;;;;;;;;;18.40;99.90;;;;;;5070238;28;19928;-73
2022/09/11 14:29:05;;;;;;;;;;;18.40;99.90;;;;;;5077245;28;19924;-74
2022/09/11 14:31:41;;;;;;;;;;;18.40;99.90;;;;;;5068107;28;20358;-73
2022/09/11 14:34:14;;;;;;;;;;;18.50;99.90;;;;;;5059708;28;19925;-73
2022/09/11 14:37:09;;;;;;;;;;;18.60;99.90;;;;;;5059653;28;20596;-72
2022/09/11 14:39:42;;;;;;;;;;;18.60;99.90;;;;;;5065164;28;19946;-73
2022/09/11 14:42:16;;;;;;;;;;;18.60;99.90;;;;;;5075707;28;20453;-73
2022/09/11 14:44:48;;;;;;;;;;;18.70;99.90;;;;;;5058234;28;19925;-73
2022/09/11 14:47:21;;;;;;;;;;;18.70;99.90;;;;;;5063070;28;19928;-72
2022/09/11 14:49:54;;;;;;;;;;;18.80;99.90;;;;;;5060357;28;19932;-73
2022/09/11 14:52:27;;;;;;;;;;;18.80;99.90;;;;;;5073129;28;19928;-73
2022/09/11 14:54:59;;;;;;;;;;;18.90;99.90;;;;;;5074310;28;19925;-73
2022/09/11 14:57:34;;;;;;;;;;;18.80;99.90;;;;;;5081462;28;19924;-73
2022/09/11 15:00:06;;;;;;;;;;;18.80;99.90;;;;;;5050737;28;20336;-71